Time;durP1;ratioP1;P1;durP2;ratioP2;P2;SDS_P1;SDS_P2;PMS_P1;PMS_P2;Temp;Humidity;BMP_temperature;BMP_pressure;BME280_temperature;BME280_humidity;BME280_pressure;Samples;Min_cycle;Max_cycle;Signal;HPM_P1;HPM_P2
2023/08/26 00:02:19;;;;;;;8.13;5.50;;;26.80;74.20;;;;;;6125570;28;81878;-60
2023/08/26 00:05:19;;;;;;;11.38;5.90;;;26.60;74.60;;;;;;6127743;28;80770;-68
2023/08/26 00:08:20;;;;;;;8.43;5.05;;;26.80;74.40;;;;;;6125801;28;80747;-69
2023/08/26 00:11:20;;;;;;;8.38;5.20;;;26.70;73.20;;;;;;6128162;28;80769;-69
2023/08/26 00:14:21;;;;;;;8.02;5.38;;;26.80;73.20;;;;;;6127299;28;80538;-66
2023/08/26 00:17:21;;;;;;;8.40;4.88;;;26.80;73.30;;;;;;6126743;28;80921;-67
2023/08/26 00:20:22;;;;;;;11.48;5.97;;;26.70;73.30;;;;;;6127723;28;80591;-71
2023/08/26 00:23:23;;;;;;;12.00;5.70;;;26.80;73.30;;;;;;6125591;28;81168;-62
2023/08/26 00:26:23;;;;;;;11.73;6.35;;;26.90;73.10;;;;;;6123937;28;80491;-62
2023/08/26 00:29:24;;;;;;;8.15;5.43;;;26.90;73.00;;;;;;6123223;28;80951;-62
2023/08/26 00:32:24;;;;;;;8.38;5.82;;;26.90;72.90;;;;;;6121945;28;82234;-61
2023/08/26 00:35:25;;;;;;;13.55;5.47;;;27.00;72.70;;;;;;6122332;28;80395;-62
2023/08/26 00:38:27;;;;;;;7.28;5.03;;;27.20;72.40;;;;;;6124376;28;81091;-61
2023/08/26 00:41:28;;;;;;;8.57;5.30;;;27.10;72.20;;;;;;6124944;28;82955;-62
2023/08/26 00:44:29;;;;;;;8.55;5.03;;;27.00;72.60;;;;;;6126379;28;83039;-62
2023/08/26 00:47:29;;;;;;;8.27;5.45;;;27.00;72.80;;;;;;6124698;28;81531;-60
2023/08/26 00:50:31;;;;;;;9.85;5.20;;;27.10;72.60;;;;;;6103414;28;83247;-63
2023/08/26 00:53:32;;;;;;;11.75;6.00;;;27.00;72.40;;;;;;6135198;28;83867;-61
2023/08/26 00:56:33;;;;;;;8.52;5.10;;;26.80;72.60;;;;;;6119365;28;83257;-61
2023/08/26 00:59:35;;;;;;;6.85;4.95;;;26.80;73.00;;;;;;6128317;28;87527;-70
2023/08/26 01:02:36;;;;;;;9.13;5.65;;;26.70;72.80;;;;;;6131660;28;81915;-71
2023/08/26 01:05:36;;;;;;;8.70;5.40;;;26.60;73.60;;;;;;6127876;28;83018;-72
2023/08/26 01:08:37;;;;;;;9.68;5.47;;;26.40;74.20;;;;;;6130183;28;82520;-72
2023/08/26 01:11:37;;;;;;;8.60;5.38;;;26.50;74.50;;;;;;6128854;28;82359;-71
2023/08/26 01:14:38;;;;;;;10.32;5.30;;;26.50;74.00;;;;;;6130454;28;83788;-72
2023/08/26 01:17:38;;;;;;;9.32;5.38;;;26.40;74.40;;;;;;6130218;28;81942;-71
2023/08/26 01:20:39;;;;;;;8.48;5.10;;;26.40;74.50;;;;;;6130267;28;80522;-64
2023/08/26 01:23:40;;;;;;;10.75;5.00;;;26.50;74.30;;;;;;6128875;28;82171;-65
2023/08/26 01:26:40;;;;;;;9.27;5.25;;;26.70;73.70;;;;;;6130631;28;80823;-64
2023/08/26 01:29:41;;;;;;;16.05;5.65;;;26.80;73.60;;;;;;6126657;28;83582;-64
2023/08/26 01:32:41;;;;;;;9.90;5.40;;;26.80;73.10;;;;;;6124370;28;83265;-64
2023/08/26 01:35:42;;;;;;;12.75;5.05;;;26.40;73.50;;;;;;6128975;28;80497;-64
2023/08/26 01:38:42;;;;;;;8.52;5.53;;;26.20;74.40;;;;;;6130183;28;81535;-62
2023/08/26 01:41:43;;;;;;;8.23;4.47;;;26.10;75.00;;;;;;6130771;28;80225;-65
2023/08/26 01:44:43;;;;;;;10.00;5.68;;;26.10;75.30;;;;;;6128667;28;83166;-63
2023/08/26 01:47:44;;;;;;;7.40;4.80;;;26.10;75.20;;;;;;6128942;28;82206;-64
2023/08/26 01:50:46;;;;;;;9.63;5.13;;;26.00;75.30;;;;;;6128882;28;81872;-63
2023/08/26 01:53:46;;;;;;;8.35;5.25;;;26.10;75.30;;;;;;6145340;28;83486;-62
2023/08/26 01:56:47;;;;;;;8.07;5.20;;;26.30;75.10;;;;;;6128171;28;82474;-59
2023/08/26 01:59:47;;;;;;;9.00;4.78;;;26.60;74.70;;;;;;6129082;28;83219;-58
2023/08/26 02:02:48;;;;;;;10.77;5.43;;;26.80;73.80;;;;;;6128732;28;83848;-59
2023/08/26 02:05:49;;;;;;;6.78;4.95;;;26.90;72.70;;;;;;6127430;28;83936;-59
2023/08/26 02:08:50;;;;;;;7.03;4.80;;;27.10;72.40;;;;;;6126942;28;80682;-59
2023/08/26 02:11:51;;;;;;;11.95;5.07;;;27.20;71.70;;;;;;6128642;28;82846;-59
2023/08/26 02:14:51;;;;;;;14.95;5.60;;;27.30;71.30;;;;;;6129813;28;80087;-71
2023/08/26 02:17:52;;;;;;;11.90;5.43;;;27.30;71.20;;;;;;6115935;28;82264;-68
2023/08/26 02:20:53;;;;;;;12.75;5.93;;;27.30;72.00;;;;;;6137819;28;83381;-71
2023/08/26 02:23:53;;;;;;;9.65;6.82;;;27.40;72.90;;;;;;6128912;28;81304;-70
2023/08/26 02:26:54;;;;;;;10.80;7.00;;;27.30;73.50;;;;;;6129156;28;80569;-68
2023/08/26 02:29:55;;;;;;;7.93;6.00;;;27.40;73.80;;;;;;6129275;28;80780;-70
2023/08/26 02:32:56;;;;;;;9.05;6.55;;;27.30;73.60;;;;;;6126578;28;81643;-61
2023/08/26 02:35:56;;;;;;;13.00;6.30;;;27.20;74.40;;;;;;6130042;28;80511;-61
2023/08/26 02:38:57;;;;;;;8.70;6.50;;;27.20;74.50;;;;;;6126702;28;83287;-61
2023/08/26 02:41:58;;;;;;;10.07;6.35;;;27.30;74.30;;;;;;6127775;28;81966;-61
2023/08/26 02:44:58;;;;;;;9.98;6.43;;;27.40;74.10;;;;;;6126986;28;83510;-60
2023/08/26 02:47:59;;;;;;;8.95;6.45;;;27.50;74.30;;;;;;6128829;28;80973;-61
2023/08/26 02:50:59;;;;;;;14.90;6.70;;;27.50;73.90;;;;;;6128303;28;80588;-61
2023/08/26 02:54:00;;;;;;;9.63;5.80;;;27.50;73.40;;;;;;6142568;28;83274;-62
2023/08/26 02:57:01;;;;;;;10.55;5.93;;;27.30;73.50;;;;;;6130009;28;80957;-60
2023/08/26 03:00:04;;;;;;;14.88;6.32;;;27.10;74.00;;;;;;6126908;28;83340;-61
2023/08/26 03:03:04;;;;;;;8.95;6.00;;;26.90;75.00;;;;;;6127911;28;80829;-59
2023/08/26 03:06:05;;;;;;;9.60;4.88;;;27.00;74.90;;;;;;6127066;28;83281;-60
2023/08/26 03:09:05;;;;;;;8.88;6.00;;;26.80;74.60;;;;;;6129857;28;80581;-59
2023/08/26 03:12:06;;;;;;;9.15;5.50;;;27.00;74.90;;;;;;6127482;28;81826;-60
2023/08/26 03:15:07;;;;;;;12.48;6.45;;;27.10;74.20;;;;;;6126506;28;83543;-59
2023/08/26 03:18:07;;;;;;;10.77;6.20;;;27.20;73.60;;;;;;6125136;28;81697;-60
2023/08/26 03:21:08;;;;;;;11.93;5.72;;;27.30;73.50;;;;;;6127226;28;83800;-60
2023/08/26 03:24:08;;;;;;;7.35;5.78;;;27.30;73.50;;;;;;6127445;28;81895;-61
2023/08/26 03:27:09;;;;;;;7.60;5.22;;;27.30;72.90;;;;;;6127613;28;83399;-73
2023/08/26 03:30:10;;;;;;;8.93;5.93;;;27.40;73.00;;;;;;6126480;28;82990;-72
2023/08/26 03:33:11;;;;;;;11.32;5.57;;;27.30;72.90;;;;;;6127301;28;83560;-73
2023/08/26 03:36:12;;;;;;;9.68;6.47;;;27.30;72.90;;;;;;6126357;28;82244;-72
2023/08/26 03:39:12;;;;;;;7.28;5.35;;;27.40;72.80;;;;;;6128657;28;81185;-71
2023/08/26 03:42:15;;;;;;;8.20;5.57;;;27.40;72.70;;;;;;6128722;28;80837;-70
2023/08/26 03:45:16;;;;;;;9.25;5.80;;;27.40;72.90;;;;;;6128715;28;82050;-59
2023/08/26 03:48:17;;;;;;;9.27;6.15;;;27.50;72.90;;;;;;6150568;28;87431;-59
2023/08/26 03:51:18;;;;;;;7.50;5.88;;;27.40;72.30;;;;;;6137832;28;85227;-60
2023/08/26 03:54:19;;;;;;;12.60;6.47;;;27.40;72.30;;;;;;6152037;28;80552;-59
2023/08/26 03:57:19;;;;;;;10.50;6.30;;;27.40;72.40;;;;;;6151335;28;80582;-60
2023/08/26 04:00:20;;;;;;;10.95;6.63;;;27.40;72.50;;;;;;6138548;28;80339;-58
2023/08/26 04:03:20;;;;;;;12.43;5.68;;;27.30;72.40;;;;;;6139064;28;83254;-61
2023/08/26 04:06:21;;;;;;;9.05;6.03;;;27.30;72.90;;;;;;6142084;28;83757;-63
2023/08/26 04:09:21;;;;;;;10.20;5.70;;;27.40;72.70;;;;;;6146302;28;83899;-63
2023/08/26 04:12:22;;;;;;;9.90;5.60;;;27.40;73.00;;;;;;6148271;28;83677;-60
2023/08/26 04:15:22;;;;;;;12.23;6.85;;;27.40;72.60;;;;;;6146001;28;83699;-62
2023/08/26 04:18:23;;;;;;;13.27;5.78;;;27.40;72.90;;;;;;6129318;28;87704;-61
2023/08/26 04:21:24;;;;;;;8.65;5.60;;;27.40;72.90;;;;;;6137307;28;82968;-61
2023/08/26 04:24:24;;;;;;;9.93;5.40;;;27.50;72.60;;;;;;6148984;28;80646;-70
2023/08/26 04:27:25;;;;;;;9.18;5.18;;;27.50;73.00;;;;;;6146953;28;83444;-70
2023/08/26 04:30:27;;;;;;;13.02;5.72;;;27.60;72.70;;;;;;6150266;28;82182;-69
2023/08/26 04:33:27;;;;;;;8.55;5.88;;;27.60;72.50;;;;;;6151747;28;83281;-71
2023/08/26 04:36:28;;;;;;;13.32;6.28;;;27.60;72.50;;;;;;6154481;28;80505;-62
2023/08/26 04:39:28;;;;;;;8.20;5.32;;;27.60;72.60;;;;;;6150284;28;86347;-65
2023/08/26 04:42:29;;;;;;;6.30;5.60;;;27.60;72.70;;;;;;6152643;28;82179;-64
2023/08/26 04:45:30;;;;;;;8.77;5.85;;;27.60;72.30;;;;;;6147978;28;82368;-63
2023/08/26 04:48:30;;;;;;;9.20;6.10;;;27.60;72.70;;;;;;6154080;28;80949;-62
2023/08/26 04:51:31;;;;;;;13.38;6.75;;;27.60;72.70;;;;;;6150806;28;81700;-61
2023/08/26 04:54:32;;;;;;;10.77;6.18;;;27.60;72.80;;;;;;6153491;28;82211;-59
2023/08/26 04:57:32;;;;;;;10.60;7.00;;;27.60;73.00;;;;;;6147221;28;81729;-59
2023/08/26 05:00:33;;;;;;;15.70;6.90;;;27.60;72.70;;;;;;6154525;28;80511;-62
2023/08/26 05:03:34;;;;;;;14.52;6.85;;;27.50;72.70;;;;;;6145022;28;81959;-62
2023/08/26 05:06:34;;;;;;;8.60;5.68;;;27.60;72.80;;;;;;6149573;28;80665;-63
2023/08/26 05:09:35;;;;;;;11.43;6.40;;;27.60;73.10;;;;;;6151073;28;80595;-64
2023/08/26 05:12:36;;;;;;;11.82;6.10;;;27.60;73.00;;;;;;6150969;28;80209;-68
2023/08/26 05:15:36;;;;;;;10.55;6.32;;;27.60;74.30;;;;;;6153231;28;80537;-64
2023/08/26 05:18:38;;;;;;;9.20;5.88;;;27.60;73.10;;;;;;6150333;28;81329;-63
2023/08/26 05:21:38;;;;;;;13.32;6.28;;;27.70;74.10;;;;;;6150394;28;82102;-67
2023/08/26 05:24:39;;;;;;;13.18;6.50;;;27.70;74.60;;;;;;6150964;28;81067;-68
2023/08/26 05:27:40;;;;;;;9.77;7.18;;;27.70;74.50;;;;;;6151699;28;83401;-67
2023/08/26 05:30:41;;;;;;;9.90;5.93;;;27.70;74.10;;;;;;6150311;28;83357;-65
2023/08/26 05:33:42;;;;;;;10.43;6.05;;;27.70;74.00;;;;;;6153735;28;82987;-62
2023/08/26 05:36:43;;;;;;;11.93;7.28;;;27.70;74.30;;;;;;6149900;28;83692;-61
2023/08/26 05:39:43;;;;;;;10.00;6.82;;;27.70;74.40;;;;;;6139138;28;82718;-63
2023/08/26 05:42:44;;;;;;;9.93;6.35;;;27.70;74.70;;;;;;6147203;28;81142;-62
2023/08/26 05:45:45;;;;;;;10.52;6.15;;;27.80;74.90;;;;;;6147733;28;86606;-62
2023/08/26 05:48:45;;;;;;;10.80;6.30;;;27.80;74.60;;;;;;6145183;28;83542;-62
2023/08/26 05:51:46;;;;;;;13.50;7.07;;;27.80;74.80;;;;;;6156085;28;80927;-62
2023/08/26 05:54:46;;;;;;;9.10;5.90;;;27.80;74.90;;;;;;6154135;28;83437;-60
2023/08/26 05:57:47;;;;;;;7.43;5.45;;;27.90;74.70;;;;;;6146814;28;83365;-61
2023/08/26 06:00:48;;;;;;;8.88;6.32;;;27.90;74.60;;;;;;6146395;28;83829;-62
2023/08/26 06:03:50;;;;;;;10.13;6.20;;;27.90;74.50;;;;;;6140998;28;83181;-62
2023/08/26 06:06:50;;;;;;;11.30;6.05;;;27.90;74.50;;;;;;6160211;28;81999;-62
2023/08/26 06:09:51;;;;;;;9.75;6.18;;;27.90;74.00;;;;;;6149059;28;80650;-61
2023/08/26 06:12:51;;;;;;;9.98;5.63;;;27.90;74.00;;;;;;6138854;28;83508;-60
2023/08/26 06:15:55;;;;;;;11.65;5.53;;;27.90;73.80;;;;;;6145222;28;83252;-58
2023/08/26 06:18:55;;;;;;;17.23;6.82;;;28.00;73.70;;;;;;6149861;28;83451;-60
2023/08/26 06:21:56;;;;;;;11.75;5.65;;;27.90;73.40;;;;;;6151688;28;83131;-59
2023/08/26 06:24:57;;;;;;;10.75;6.25;;;27.90;73.50;;;;;;6150575;28;83021;-59
2023/08/26 06:27:57;;;;;;;9.85;4.90;;;27.90;74.20;;;;;;6147412;28;80763;-59
2023/08/26 06:30:58;;;;;;;11.48;5.63;;;27.90;74.40;;;;;;6151171;28;83656;-59
2023/08/26 06:34:02;;;;;;;11.77;6.15;;;27.90;74.20;;;;;;6152146;28;81249;-62
2023/08/26 06:37:03;;;;;;;10.20;5.57;;;27.90;73.40;;;;;;6150858;28;83555;-59
2023/08/26 06:40:05;;;;;;;12.55;6.45;;;27.90;73.60;;;;;;6153480;28;80568;-59
2023/08/26 06:43:07;;;;;;;8.35;6.13;;;27.90;73.70;;;;;;6151582;28;82686;-58
2023/08/26 06:46:10;;;;;;;14.32;6.82;;;27.90;73.50;;;;;;6165234;28;83554;-58
2023/08/26 06:49:10;;;;;;;8.70;6.35;;;28.00;73.70;;;;;;6117575;28;84158;-59
2023/08/26 06:52:11;;;;;;;11.93;6.15;;;28.00;73.50;;;;;;6140463;28;80996;-61
2023/08/26 06:55:13;;;;;;;7.60;5.53;;;28.00;73.60;;;;;;6133150;28;83757;-60
2023/08/26 06:58:13;;;;;;;10.32;5.72;;;28.10;74.10;;;;;;6137878;28;81070;-61
2023/08/26 07:01:14;;;;;;;13.10;6.55;;;28.10;74.10;;;;;;6141489;28;81107;-60
2023/08/26 07:04:14;;;;;;;9.70;5.47;;;28.10;73.80;;;;;;6132694;28;81426;-58
2023/08/26 07:07:15;;;;;;;18.15;5.95;;;28.10;73.90;;;;;;6141006;28;82576;-60
2023/08/26 07:10:15;;;;;;;12.68;7.05;;;28.10;73.80;;;;;;6142428;28;82116;-61
2023/08/26 07:13:16;;;;;;;11.00;6.93;;;28.10;73.60;;;;;;6136401;28;80643;-63
2023/08/26 07:16:16;;;;;;;9.02;6.30;;;28.20;73.50;;;;;;6140536;28;80729;-61
2023/08/26 07:19:17;;;;;;;18.13;7.15;;;28.20;73.30;;;;;;6150188;28;81694;-62
2023/08/26 07:22:17;;;;;;;10.38;6.85;;;28.30;73.20;;;;;;6148329;28;80616;-62
2023/08/26 07:25:18;;;;;;;9.43;7.15;;;28.30;73.40;;;;;;6144615;28;81003;-63
2023/08/26 07:28:19;;;;;;;12.57;6.45;;;28.30;73.00;;;;;;6140658;28;80201;-64
2023/08/26 07:31:19;;;;;;;13.82;6.05;;;28.30;73.00;;;;;;6153061;28;81824;-64
2023/08/26 07:34:20;;;;;;;8.38;6.50;;;28.30;73.20;;;;;;6153663;28;80615;-64
2023/08/26 07:37:20;;;;;;;11.60;6.38;;;28.30;72.90;;;;;;6148105;28;82326;-63
2023/08/26 07:40:21;;;;;;;14.32;7.00;;;28.40;72.80;;;;;;6147899;28;80593;-63
2023/08/26 07:43:21;;;;;;;10.48;6.53;;;28.40;72.60;;;;;;6138975;28;80941;-65
2023/08/26 07:46:22;;;;;;;7.38;6.05;;;28.40;72.80;;;;;;6148122;28;82977;-70
2023/08/26 07:49:23;;;;;;;12.88;7.10;;;28.50;72.60;;;;;;6150223;28;80546;-74
2023/08/26 07:52:24;;;;;;;13.88;7.13;;;28.50;72.30;;;;;;6145103;28;80487;-71
2023/08/26 07:55:24;;;;;;;10.25;6.00;;;28.60;71.60;;;;;;6152615;28;81817;-61
2023/08/26 07:58:25;;;;;;;12.25;7.10;;;28.60;71.80;;;;;;6150697;28;81359;-61
2023/08/26 08:01:25;;;;;;;8.48;6.03;;;28.60;71.60;;;;;;6148808;28;80279;-68
2023/08/26 08:04:26;;;;;;;10.82;6.20;;;28.60;71.10;;;;;;6149261;28;80907;-72
2023/08/26 08:07:26;;;;;;;8.68;6.03;;;28.70;71.00;;;;;;6139313;28;81332;-72
2023/08/26 08:10:27;;;;;;;8.98;5.53;;;28.70;70.80;;;;;;6150562;28;82893;-71
2023/08/26 08:13:27;;;;;;;8.98;5.70;;;28.70;70.60;;;;;;6151075;28;81006;-70
2023/08/26 08:16:28;;;;;;;14.13;6.15;;;28.80;70.20;;;;;;6151711;28;80978;-72
2023/08/26 08:19:28;;;;;;;9.20;5.97;;;28.80;70.30;;;;;;6152231;28;80763;-73
2023/08/26 08:22:29;;;;;;;10.57;5.72;;;28.80;69.80;;;;;;6149515;28;81226;-65
2023/08/26 08:25:29;;;;;;;9.05;5.63;;;28.90;69.60;;;;;;6149534;28;80702;-69
2023/08/26 08:28:30;;;;;;;8.10;5.78;;;28.90;69.60;;;;;;6130994;28;82019;-67
2023/08/26 08:31:30;;;;;;;9.40;5.00;;;28.90;68.30;;;;;;6133866;28;83128;-67
2023/08/26 08:34:31;;;;;;;10.00;5.72;;;28.90;67.00;;;;;;6123524;28;82186;-67
2023/08/26 08:37:31;;;;;;;9.60;5.20;;;28.90;66.50;;;;;;6129552;28;83599;-67
2023/08/26 08:40:32;;;;;;;7.78;5.00;;;29.00;66.00;;;;;;6146502;28;81092;-68
2023/08/26 08:43:32;;;;;;;7.72;4.60;;;29.00;66.30;;;;;;6121378;28;84685;-68
2023/08/26 08:46:33;;;;;;;6.78;4.63;;;29.00;66.10;;;;;;6150007;28;81140;-67
2023/08/26 08:49:33;;;;;;;11.43;5.15;;;29.00;66.60;;;;;;6134449;28;83328;-68
2023/08/26 08:52:34;;;;;;;10.00;5.95;;;29.00;67.10;;;;;;6145307;28;82431;-67
2023/08/26 08:55:34;;;;;;;9.30;5.13;;;29.00;66.70;;;;;;6135496;28;85619;-67
2023/08/26 08:58:35;;;;;;;6.50;4.72;;;28.90;65.40;;;;;;6123761;28;80236;-67
2023/08/26 09:01:35;;;;;;;11.43;5.30;;;28.90;66.20;;;;;;6142211;28;81153;-68
2023/08/26 09:04:36;;;;;;;7.78;4.70;;;28.90;65.00;;;;;;6129059;28;85372;-67
2023/08/26 09:07:37;;;;;;;7.22;4.80;;;29.00;65.30;;;;;;6134721;28;83998;-67
2023/08/26 09:10:37;;;;;;;8.30;5.18;;;28.90;64.00;;;;;;6120814;28;82696;-67
2023/08/26 09:13:38;;;;;;;6.70;4.57;;;28.90;65.00;;;;;;6149562;28;82307;-68
2023/08/26 09:16:38;;;;;;;7.20;4.50;;;29.00;64.70;;;;;;6110971;28;83272;-67
2023/08/26 09:19:39;;;;;;;6.50;4.00;;;29.10;65.50;;;;;;6146206;28;85791;-65
2023/08/26 09:22:40;;;;;;;6.50;4.60;;;29.10;63.90;;;;;;6132775;28;83777;-67
2023/08/26 09:25:41;;;;;;;7.63;4.47;;;29.10;64.40;;;;;;6132545;28;84059;-67
2023/08/26 09:28:41;;;;;;;6.78;4.57;;;29.20;64.80;;;;;;6127316;28;81410;-66
2023/08/26 09:31:42;;;;;;;7.60;4.05;;;29.20;64.10;;;;;;6132840;28;84967;-66
2023/08/26 09:34:43;;;;;;;6.28;4.50;;;29.20;64.70;;;;;;6146195;28;81030;-67
2023/08/26 09:37:43;;;;;;;6.43;4.30;;;29.30;63.70;;;;;;6130519;28;83649;-67
2023/08/26 09:40:44;;;;;;;5.38;4.38;;;29.30;64.00;;;;;;6142436;28;80810;-68
2023/08/26 09:43:44;;;;;;;6.43;4.40;;;29.30;64.40;;;;;;6142073;28;81682;-67
2023/08/26 09:46:45;;;;;;;6.82;4.60;;;29.40;64.10;;;;;;6125901;28;80868;-67
2023/08/26 09:49:45;;;;;;;9.60;4.78;;;29.50;62.70;;;;;;6133039;28;85415;-67
2023/08/26 09:52:49;;;;;;;11.77;4.80;;;29.60;62.90;;;;;;6135839;28;87828;-68
2023/08/26 09:55:50;;;;;;;9.23;4.70;;;29.60;63.10;;;;;;6123105;28;89103;-73
2023/08/26 09:58:50;;;;;;;6.28;4.82;;;29.70;63.30;;;;;;6130826;28;84372;-69
2023/08/26 10:01:51;;;;;;;8.40;5.95;;;29.70;63.50;;;;;;6123394;28;83564;-69
2023/08/26 10:04:51;;;;;;;10.13;5.43;;;29.70;63.60;;;;;;6132659;28;82776;-66
2023/08/26 10:07:52;;;;;;;11.68;6.20;;;29.60;63.90;;;;;;6149976;28;80534;-67
2023/08/26 10:10:52;;;;;;;9.35;5.90;;;29.60;64.50;;;;;;6149328;28;82463;-69
2023/08/26 10:13:53;;;;;;;7.68;5.82;;;29.60;64.40;;;;;;6153003;28;80337;-68
2023/08/26 10:16:54;;;;;;;9.07;5.78;;;29.60;64.40;;;;;;6145046;28;86078;-71
2023/08/26 10:19:55;;;;;;;9.05;5.82;;;29.60;64.30;;;;;;6152047;28;80479;-71
2023/08/26 10:22:55;;;;;;;10.60;6.53;;;29.50;64.50;;;;;;6134660;28;83919;-72
2023/08/26 10:25:56;;;;;;;11.90;6.10;;;29.50;64.40;;;;;;6153120;28;80438;-71
2023/08/26 10:28:56;;;;;;;11.77;5.47;;;29.50;64.80;;;;;;6151302;28;86048;-72
2023/08/26 10:31:57;;;;;;;9.18;5.95;;;29.50;65.00;;;;;;6132310;28;80386;-64
2023/08/26 10:34:58;;;;;;;10.85;6.10;;;29.40;66.30;;;;;;6151886;28;80575;-70
2023/08/26 10:37:58;;;;;;;11.68;6.90;;;29.40;66.60;;;;;;6138999;28;80799;-70
2023/08/26 10:40:59;;;;;;;9.13;6.30;;;29.40;66.40;;;;;;6139438;28;80444;-67
2023/08/26 10:44:01;;;;;;;11.27;6.15;;;29.40;66.60;;;;;;6133572;28;81181;-68
2023/08/26 10:47:01;;;;;;;9.80;6.00;;;29.40;66.80;;;;;;6150881;28;82071;-66
2023/08/26 10:50:02;;;;;;;10.48;7.00;;;29.30;67.80;;;;;;6146186;28;82041;-63
2023/08/26 10:53:02;;;;;;;12.85;7.22;;;29.20;69.00;;;;;;6141683;28;81537;-63
2023/08/26 10:56:03;;;;;;;8.55;6.95;;;29.30;69.20;;;;;;6151103;28;80394;-64
2023/08/26 10:59:04;;;;;;;11.77;6.45;;;29.20;69.30;;;;;;6138290;28;81202;-67
2023/08/26 11:02:04;;;;;;;8.43;6.82;;;29.20;70.20;;;;;;6142256;28;81001;-68
2023/08/26 11:05:05;;;;;;;11.82;7.20;;;29.20;70.10;;;;;;6150663;28;80958;-66
2023/08/26 11:08:05;;;;;;;20.27;7.13;;;29.20;70.60;;;;;;6146863;28;82503;-63
2023/08/26 11:11:06;;;;;;;10.27;6.65;;;29.10;71.70;;;;;;6146466;28;81274;-65
2023/08/26 11:14:07;;;;;;;13.70;7.80;;;29.10;71.80;;;;;;6109180;28;83476;-70
2023/08/26 11:17:07;;;;;;;13.60;7.45;;;29.00;73.40;;;;;;6128493;28;83035;-66
2023/08/26 11:20:08;;;;;;;14.60;6.82;;;29.00;73.90;;;;;;6106131;28;80893;-68
2023/08/26 11:23:08;;;;;;;11.68;6.95;;;28.90;74.20;;;;;;6131800;28;86056;-65
2023/08/26 11:26:09;;;;;;;14.90;7.55;;;28.90;75.60;;;;;;6120582;28;80624;-58
2023/08/26 11:29:11;;;;;;;19.90;9.48;;;28.90;76.20;;;;;;6117802;28;84211;-59
2023/08/26 11:32:11;;;;;;;10.18;7.07;;;29.00;77.20;;;;;;6109824;28;80562;-61
2023/08/26 11:35:12;;;;;;;13.63;7.85;;;29.00;77.70;;;;;;6107624;28;86251;-59
2023/08/26 11:38:12;;;;;;;11.88;8.15;;;28.90;77.70;;;;;;6107610;28;81308;-59
2023/08/26 11:41:13;;;;;;;13.50;8.70;;;28.90;78.10;;;;;;6116587;28;80415;-59
2023/08/26 11:44:14;;;;;;;21.50;10.50;;;28.90;78.50;;;;;;6119924;28;81092;-58
2023/08/26 11:47:14;;;;;;;25.05;11.02;;;28.90;81.00;;;;;;6115449;28;83838;-65
2023/08/26 11:50:15;;;;;;;18.65;9.82;;;28.70;83.00;;;;;;6116388;28;84601;-66
2023/08/26 11:53:15;;;;;;;17.38;8.73;;;28.70;84.10;;;;;;6118331;28;83343;-65
2023/08/26 11:56:16;;;;;;;10.95;8.38;;;28.60;82.60;;;;;;6115518;28;81463;-63
2023/08/26 11:59:16;;;;;;;15.15;8.70;;;28.50;82.20;;;;;;6118374;28;81600;-64
2023/08/26 12:02:17;;;;;;;16.77;8.32;;;28.40;81.80;;;;;;6119849;28;84993;-67
2023/08/26 12:05:18;;;;;;;16.73;7.45;;;28.40;82.40;;;;;;6119655;28;81844;-64
2023/08/26 12:08:19;;;;;;;17.63;5.60;;;28.30;82.80;;;;;;6120380;28;82658;-59
2023/08/26 12:11:20;;;;;;;12.55;5.65;;;27.60;80.20;;;;;;6120020;28;81810;-61
2023/08/26 12:14:20;;;;;;;8.20;4.25;;;27.00;81.00;;;;;;6120177;28;86302;-61
2023/08/26 12:17:21;;;;;;;8.30;3.88;;;26.70;81.30;;;;;;6119286;28;81918;-61
2023/08/26 12:20:21;;;;;;;7.40;3.97;;;26.30;82.40;;;;;;6120907;28;80850;-60
2023/08/26 12:23:22;;;;;;;8.27;4.20;;;26.40;82.80;;;;;;6121929;28;80213;-61
2023/08/26 12:26:23;;;;;;;8.30;3.72;;;26.10;83.10;;;;;;6117800;28;80672;-62
2023/08/26 12:29:23;;;;;;;9.00;4.32;;;26.10;84.10;;;;;;6119936;28;81268;-61
2023/08/26 12:32:24;;;;;;;5.63;3.85;;;26.60;83.00;;;;;;6119262;28;80865;-63
2023/08/26 12:35:24;;;;;;;9.93;3.55;;;26.10;83.00;;;;;;6119587;28;80859;-64
2023/08/26 12:38:25;;;;;;;5.93;3.30;;;26.00;83.30;;;;;;6126939;28;81924;-61
2023/08/26 12:41:25;;;;;;;6.38;3.22;;;26.30;81.80;;;;;;6125875;28;80575;-62
2023/08/26 12:44:26;;;;;;;8.00;3.78;;;26.70;81.10;;;;;;6126720;28;80866;-60
2023/08/26 12:47:26;;;;;;;5.75;3.20;;;26.90;79.80;;;;;;6122149;28;81112;-61
2023/08/26 12:50:27;;;;;;;4.90;2.92;;;27.10;78.10;;;;;;6125318;28;82519;-65
2023/08/26 12:53:27;;;;;;;4.85;3.22;;;27.20;77.00;;;;;;6127066;28;80286;-64
2023/08/26 12:56:28;;;;;;;8.20;4.22;;;27.00;77.40;;;;;;6130404;28;81279;-60
2023/08/26 12:59:28;;;;;;;7.25;3.70;;;26.40;79.60;;;;;;6130849;28;80479;-60
2023/08/26 13:02:30;;;;;;;7.10;3.40;;;25.90;82.70;;;;;;6130344;28;82759;-59
2023/08/26 13:05:30;;;;;;;7.40;3.33;;;25.80;83.90;;;;;;6130957;28;80920;-58
2023/08/26 13:08:31;;;;;;;4.30;3.08;;;25.60;85.40;;;;;;6128274;28;80528;-58
2023/08/26 13:11:31;;;;;;;6.47;3.35;;;25.40;87.40;;;;;;6131359;28;80723;-59
2023/08/26 13:14:32;;;;;;;4.63;2.72;;;25.40;88.20;;;;;;6131792;28;80111;-58
2023/08/26 13:17:33;;;;;;;6.63;2.88;;;25.30;88.00;;;;;;6130285;28;80207;-58
2023/08/26 13:20:33;;;;;;;8.50;3.65;;;25.40;87.60;;;;;;6130805;28;82439;-60
2023/08/26 13:23:34;;;;;;;6.95;3.17;;;25.30;87.50;;;;;;6131076;28;82411;-58
2023/08/26 13:26:34;;;;;;;5.03;3.00;;;25.50;86.50;;;;;;6129884;28;80081;-58
2023/08/26 13:29:35;;;;;;;6.72;3.38;;;25.80;84.80;;;;;;6130548;28;80388;-60
2023/08/26 13:32:35;;;;;;;9.90;3.67;;;25.60;85.50;;;;;;6130123;28;81362;-60
2023/08/26 13:35:36;;;;;;;11.52;3.53;;;25.80;85.50;;;;;;6128568;28;80826;-66
2023/08/26 13:38:36;;;;;;;5.05;3.13;;;26.10;84.10;;;;;;6131754;28;81257;-66
2023/08/26 13:41:37;;;;;;;5.88;2.95;;;26.40;82.70;;;;;;6129795;28;80756;-67
2023/08/26 13:44:37;;;;;;;7.47;3.05;;;26.60;81.20;;;;;;6123845;28;80450;-67
2023/08/26 13:47:38;;;;;;;5.43;2.72;;;26.70;80.30;;;;;;6129766;28;80206;-64
2023/08/26 13:50:39;;;;;;;7.57;3.00;;;26.80;79.60;;;;;;6129230;28;80513;-69
2023/08/26 13:53:39;;;;;;;6.97;2.55;;;26.70;79.10;;;;;;6130817;28;80914;-69
2023/08/26 13:56:40;;;;;;;4.63;2.75;;;26.70;78.80;;;;;;6138283;28;83945;-67
2023/08/26 13:59:41;;;;;;;7.00;2.20;;;25.90;82.00;;;;;;6130545;28;84021;-64
2023/08/26 14:02:42;;;;;;;10.15;3.17;;;26.10;82.20;;;;;;6130800;28;80587;-65
2023/08/26 14:05:42;;;;;;;6.82;2.70;;;26.40;81.00;;;;;;6128237;28;80357;-68
2023/08/26 14:08:43;;;;;;;6.18;2.38;;;26.40;79.90;;;;;;6124375;28;80711;-66
2023/08/26 14:11:43;;;;;;;6.00;2.13;;;26.70;80.00;;;;;;6127191;28;80993;-68
2023/08/26 14:14:44;;;;;;;7.43;1.70;;;26.70;78.60;;;;;;6126442;28;82595;-64
2023/08/26 14:17:44;;;;;;;4.68;2.22;;;26.80;78.20;;;;;;6131024;28;80779;-66
2023/08/26 14:20:45;;;;;;;4.30;2.33;;;26.80;78.30;;;;;;6130995;28;81113;-69
2023/08/26 14:23:45;;;;;;;7.68;2.47;;;26.90;78.30;;;;;;6129859;28;86244;-64
2023/08/26 14:26:46;;;;;;;6.70;2.33;;;27.00;78.20;;;;;;6130766;28;82678;-67
2023/08/26 14:29:46;;;;;;;4.00;2.75;;;27.10;78.40;;;;;;6128986;28;81414;-64
2023/08/26 14:32:47;;;;;;;3.40;2.15;;;27.10;78.40;;;;;;6129785;28;80327;-65
2023/08/26 14:35:48;;;;;;;4.45;2.40;;;27.20;77.60;;;;;;6129386;28;80521;-64
2023/08/26 14:38:48;;;;;;;4.43;2.20;;;27.10;77.70;;;;;;6128940;28;80702;-66
2023/08/26 14:41:49;;;;;;;7.38;2.20;;;27.10;78.10;;;;;;6120752;28;80800;-64
2023/08/26 14:44:49;;;;;;;3.55;1.90;;;27.20;78.20;;;;;;6128180;28;80992;-66
2023/08/26 14:47:50;;;;;;;8.23;2.45;;;27.30;78.00;;;;;;6129444;28;80426;-62
2023/08/26 14:50:50;;;;;;;4.32;2.47;;;27.40;77.80;;;;;;6128642;28;80762;-66
2023/08/26 14:53:51;;;;;;;4.13;2.25;;;27.40;77.60;;;;;;6129834;28;81718;-69
2023/08/26 14:56:51;;;;;;;5.40;2.88;;;27.40;77.20;;;;;;6129197;28;80461;-64
2023/08/26 14:59:52;;;;;;;3.13;2.63;;;27.30;76.50;;;;;;6128977;28;81803;-66
2023/08/26 15:02:52;;;;;;;5.72;3.15;;;27.30;76.90;;;;;;6129650;28;80780;-63
2023/08/26 15:05:53;;;;;;;6.07;3.88;;;27.30;76.80;;;;;;6128248;28;81011;-64
2023/08/26 15:08:53;;;;;;;7.97;4.20;;;27.20;77.40;;;;;;6126623;28;80249;-66
2023/08/26 15:11:54;;;;;;;11.02;3.75;;;27.30;77.50;;;;;;6128884;28;80851;-65
2023/08/26 15:14:54;;;;;;;6.80;3.70;;;27.30;77.10;;;;;;6111355;28;85910;-69
2023/08/26 15:17:55;;;;;;;5.38;3.22;;;27.30;77.10;;;;;;6125071;28;81584;-67
2023/08/26 15:20:56;;;;;;;9.15;3.42;;;27.00;78.50;;;;;;6123783;28;80384;-66
2023/08/26 15:23:56;;;;;;;6.35;2.47;;;26.70;80.80;;;;;;6123529;28;87487;-64
2023/08/26 15:26:57;;;;;;;6.57;2.85;;;26.40;80.90;;;;;;6125227;28;80860;-70
2023/08/26 15:29:57;;;;;;;5.95;2.78;;;26.00;82.70;;;;;;6121783;28;86428;-68
2023/08/26 15:33:00;;;;;;;7.45;3.28;;;25.90;84.80;;;;;;6123250;28;80531;-66
2023/08/26 15:36:00;;;;;;;3.50;2.90;;;25.70;85.40;;;;;;6121423;28;81958;-68